Dexter, MI

4:11 AM EDT on April 01, 2015 (GMT -0400)
Chateau Barbeau (Webster TWP) | | Change Station
CLOSE
Current Station
Personal Weather Station
Location: Dexter, MI
Elevation: 915 ft
Nearby Weather Stations

Elev 915 ft 42.40 °N, 83.84 °W | Updated 4 seconds ago

Mostly Cloudy
Mostly Cloudy
30.2 °F
Feels Like 30 °F
N
0.0
Wind Variable Wind from WNW
Gusts 0.0 mph

Today
High -- | Low -- °F
--% Chance of Precip.
Yesterday
High -- | Low -- °F
Precip. -- in
7:18 AM 8:00 PM
Waxing Gibbous, 91% visible
Pressure 30.02 in
Visibility 4.0 miles
Clouds Clear
Windchill 30 °F
Dew Point 29 °F
Humidity 95%
Rainfall 0.00 in
Snow Depth Not available.
UV 0.0 out of 12
Pollen 1.60 out of 12
Air Quality Not available.
Flu Activity Not available.
METAR KARB 010753Z AUTO 25004KT 4SM BR CLR M01/M02 A2999 RMK AO2 SLP164 T10111017 $

More Conditions Fewer Conditions

Pressure 30.02 in
Visibility 4.0 miles
Clouds Clear
Windchill 30 °F
Dew Point 29 °F
Humidity 95%
Rainfall 0.00 in
Snow Depth Not available.
UV 0.0 out of 12
Pollen 1.60 out of 12
Air Quality Not available.
Flu Activity Not available.
METAR KARB 010753Z AUTO 25004KT 4SM BR CLR M01/M02 A2999 RMK AO2 SLP164 T10111017 $

More Conditions Fewer Conditions

10-Day Weather Forecast

Almanac

Astronomy

Apr. 01, 2015 Rise Set
Actual Time
Civil Twilight
Nautical Twilight
Astronomical Twilight
Moon
Length of Visible Light
Length of Day
Tomorrow will be .
, % of the Moon is Illuminated

Today's Extremes

State Highs State Lows

Community

WunderPhotos

Upload Photos

1,809,932 photos uploaded!

WunderBlogs® & News

Nearby

Air Quality

  Air Quality AQ Index Pollutant
Not available.

Snow Depth

Station Depth Elevation

Earthquake Activity

City Distance Mag. Time & Date
Minimum magnitude displayed is 2.5.

Coastal Water Temperatures

Place Temperature

Stations

Nearby Weather Stations

Station Location Temp. Windchill Dew Point Humidity Wind Precip. Elev Updated Type